MGQ weather

Aden Adde International Airport
Mogadishu, Banaadir, Somalia

Public forecast

Using degrees Celsius for public forecast. Weather courtesy of forecast.io.

METAR (pilot weather report)

Report is more than 6 hours old.

Retrieved 2019/03/19 14:00 UTC (7 hours ago):

HCMM 191400Z 08015KT CAVOK 30/22 Q1007

TAF (pilot weather forecast)

Closest forecast is Eldoret International Airport, 611.9 nm (1,133.2 km) W. Retrieved 2019/03/19 17:54 UTC (3 hours ago):

TAF TAF HKEL 191700Z 1917/2018 11005KT 9999 FEW018 SCT080 BECMG 2008/2011 12015KT FEW023CB SCT024